Koyo — JD2279 — position and weather

sailwx.info

Track history (hours):
 
Tides and Currents Weather Stations Pressure Air Temp Water Temp Dewpoint Dewpoint Depression Visibility Wind Speed Wind Dir Waves Ship Positions

Koyo

Last reported at 2017-Apr-30 20:30 UTC. Time now 2017-Apr-30 20:51 UTC.
Position N 34°41' E 135°13'.

Length 80 m; draft 3.7 m.

Type: Cargo ship. MMSI: 431301812.

Date/timePositionNaut miles runAvg speedWind from/ knotsBaromVisibWave heightAir tempDewpointWater temp
2017-Apr-30 20:30N 34°41' E 135°13'0 0.0
2017-Apr-30 20:00N 34°41' E 135°13'0 0.0
2017-Apr-30 19:30N 34°41' E 135°13'0 0.0
2017-Apr-30 19:00N 34°41' E 135°13'0 0.0
2017-Apr-30 18:30N 34°41' E 135°13'0 0.0
2017-Apr-30 18:00N 34°41' E 135°13'0 0.0
2017-Apr-30 17:30N 34°41' E 135°13'0 0.0
2017-Apr-30 17:00N 34°41' E 135°13'0 0.0
2017-Apr-30 16:30N 34°41' E 135°13'0 0.0
2017-Apr-30 16:00N 34°41' E 135°13'0 0.0
2017-Apr-30 15:30N 34°41' E 135°13'0 0.0
2017-Apr-30 15:00N 34°41' E 135°13'0 0.0
2017-Apr-30 14:30N 34°41' E 135°13'0 0.0
2017-Apr-30 13:30N 34°41' E 135°13'0 0.0
2017-Apr-30 13:00N 34°41' E 135°13'0 0.0
2017-Apr-30 12:30N 34°41' E 135°13'0 0.0
2017-Apr-30 12:00N 34°41' E 135°13'0 0.0
2017-Apr-30 11:30N 34°41' E 135°13'0 0.0
2017-Apr-30 11:00N 34°41' E 135°13'0 0.0
2017-Apr-30 10:30N 34°41' E 135°13'0 0.0
2017-Apr-30 10:00N 34°41' E 135°13'0 0.0
2017-Apr-30 09:30N 34°41' E 135°13'0 0.0
2017-Apr-30 09:00N 34°41' E 135°13'0 0.0
2017-Apr-30 08:30N 34°41' E 135°13'0 0.0
2017-Apr-30 08:00N 34°41' E 135°13'0 0.0
2017-Apr-30 07:30N 34°41' E 135°13'0 0.0
2017-Apr-30 07:00N 34°41' E 135°13'0 0.0
2017-Apr-30 06:30N 34°41' E 135°13'0 0.0
2017-Apr-30 06:00N 34°41' E 135°13'0 0.0
2017-Apr-30 05:30N 34°41' E 135°13'0 0.0
2017-Apr-30 05:00N 34°41' E 135°13'0 0.0
2017-Apr-30 04:30N 34°41' E 135°13'0 0.0
2017-Apr-30 04:00N 34°41' E 135°13'0 0.0
2017-Apr-30 03:30N 34°41' E 135°13'0 0.0
2017-Apr-30 03:00N 34°41' E 135°13'0 0.0
2017-Apr-30 02:30N 34°41' E 135°13'0 0.0
2017-Apr-30 02:00N 34°41' E 135°13'0 0.0
2017-Apr-30 01:30N 34°41' E 135°13'0 0.0
2017-Apr-30 01:00N 34°41' E 135°13'0 0.0
2017-Apr-30 00:30N 34°41' E 135°13'0 0.0
2017-Apr-30 00:00N 34°41' E 135°13'0 0.0
2017-Apr-29 23:30N 34°41' E 135°13'0 0.0
2017-Apr-29 23:00N 34°41' E 135°13'0 0.0
2017-Apr-29 22:30N 34°41' E 135°13'0 0.0
2017-Apr-29 22:00N 34°41' E 135°13'0 0.0
2017-Apr-29 21:30N 34°41' E 135°13'0 0.0
2017-Apr-29 21:00N 34°41' E 135°13'0 0.0
2017-Apr-29 20:30N 34°41' E 135°13'0 0.0
2017-Apr-29 20:00N 34°41' E 135°13'0 0.0
2017-Apr-29 19:30N 34°41' E 135°13'0 0.0
2017-Apr-29 19:00N 34°41' E 135°13'0 0.0
2017-Apr-29 18:30N 34°41' E 135°13'0 0.0
2017-Apr-29 18:00N 34°41' E 135°13'0 0.0
2017-Apr-29 17:30N 34°41' E 135°13'0 0.2
2017-Apr-29 17:00N 34°41' E 135°13'4 7.6
2017-Apr-29 16:30N 34°38' E 135°15'612.4
2017-Apr-29 16:00N 34°36' E 135°08'510.6
2017-Apr-29 15:30N 34°36' E 135°02'510.8
2017-Apr-29 15:00N 34°36' E 134°55'4 0.2
2017-Apr-28 16:27N 34°35' E 134°51'511.7
2017-Apr-28 15:59N 34°37' E 134°57'510.9
2017-Apr-28 15:30N 34°36' E 135°03'611.2
2017-Apr-28 15:00N 34°37' E 135°10'5 4.7
2017-Apr-28 14:00N 34°40' E 135°14'0 0.0
2017-Apr-28 13:30N 34°40' E 135°14'0 0.0
2017-Apr-28 13:00N 34°40' E 135°14'0 0.0
2017-Apr-28 12:30N 34°40' E 135°14'0 0.0
2017-Apr-28 12:00N 34°40' E 135°14'0 0.7
2017-Apr-28 11:30N 34°39' E 135°15'511.0
2017-Apr-28 11:00N 34°35' E 135°12'612.8
2017-Apr-28 10:30N 34°30' E 135°07'713.2
2017-Apr-28 10:00N 34°24' E 135°03'813.6
2017-Apr-28 09:25N 34°16' E 134°60'614.1
2017-Apr-28 09:00N 34°13' E 135°06'2 4.6
2017-Apr-28 08:30N 34°12' E 135°09'0 0.0
2017-Apr-28 08:00N 34°12' E 135°09'0 0.0
2017-Apr-28 07:30N 34°12' E 135°09'0 0.0
2017-Apr-28 07:00N 34°12' E 135°09'0 0.0
2017-Apr-28 06:30N 34°12' E 135°09'2 3.6
2017-Apr-28 06:00N 34°13' E 135°07'911.5
2017-Apr-28 05:16N 34°19' E 134°59'413.6
2017-Apr-28 04:59N 34°22' E 135°02'714.2
2017-Apr-28 04:29N 34°27' E 135°08'713.4
2017-Apr-28 04:00N 34°32' E 135°14'812.5
2017-Apr-28 03:20N 34°37' E 135°22'3 8.4
2017-Apr-28 02:59N 34°38' E 135°25'0 0.0
2017-Apr-28 02:27N 34°38' E 135°25'0 0.0
2017-Apr-28 02:00N 34°38' E 135°25'0 0.9
2017-Apr-28 01:30N 34°37' E 135°25'611.7
2017-Apr-28 01:00N 34°38' E 135°18'3 5.5
2017-Apr-28 00:30N 34°39' E 135°14'0 0.0
2017-Apr-28 00:00N 34°39' E 135°14'0 0.0
2017-Apr-27 23:30N 34°39' E 135°14'0 0.1
2017-Apr-27 23:00N 34°39' E 135°15'1 1.9
2017-Apr-27 22:30N 34°39' E 135°15'0 0.0
2017-Apr-27 22:00N 34°39' E 135°15'0 0.0
2017-Apr-27 21:30N 34°39' E 135°15'0 0.0
2017-Apr-27 21:00N 34°39' E 135°15'0 0.0
2017-Apr-27 20:30N 34°39' E 135°15'0 0.0
2017-Apr-27 20:00N 34°39' E 135°15'0 0.0
2017-Apr-27 19:30N 34°39' E 135°15'0 0.0
2017-Apr-27 19:00N 34°39' E 135°15'0 0.0
2017-Apr-27 18:30N 34°39' E 135°15'0 0.0
2017-Apr-27 18:00N 34°39' E 135°15'0 0.0
2017-Apr-27 17:30N 34°39' E 135°15'0 0.1
2017-Apr-27 17:00N 34°39' E 135°15'0 0.2
2017-Apr-27 16:30N 34°39' E 135°15'0 0.1
2017-Apr-27 16:00N 34°39' E 135°15'3 5.8
2017-Apr-27 15:30N 34°37' E 135°13'611.7
2017-Apr-27 15:00N 34°35' E 135°06'1010.3
2017-Apr-27 14:00N 34°35' E 134°53'1 0.1
2017-Apr-26 12:16N 34°35' E 134°51'415.6
2017-Apr-26 12:00N 34°37' E 134°56'714.1
2017-Apr-26 11:30N 34°36' E 135°04'713.3
2017-Apr-26 11:00N 34°37' E 135°13'3 5.3
2017-Apr-26 10:30N 34°40' E 135°14'0 0.0
2017-Apr-26 10:00N 34°40' E 135°14'0 0.1
2017-Apr-26 09:30N 34°40' E 135°14'0 0.1
2017-Apr-26 08:59N 34°40' E 135°14'0 0.0
2017-Apr-26 08:30N 34°40' E 135°14'0 0.0
2017-Apr-26 08:00N 34°40' E 135°14'0 0.0
2017-Apr-26 07:30N 34°40' E 135°14'1 1.5
2017-Apr-26 07:00N 34°39' E 135°15'0 0.8
2017-Apr-26 06:30N 34°39' E 135°15'0 0.0
2017-Apr-26 06:00N 34°39' E 135°15'1 1.4
2017-Apr-26 05:30N 34°39' E 135°15'0 0.0
2017-Apr-26 05:00N 34°39' E 135°15'0 0.0
2017-Apr-26 04:30N 34°39' E 135°15'0 0.0
2017-Apr-26 04:00N 34°39' E 135°15'1 1.7
2017-Apr-26 03:30N 34°38' E 135°15'0 0.0
2017-Apr-26 03:00N 34°38' E 135°15'0 0.1
2017-Apr-26 02:30N 34°39' E 135°15'0 0.1
2017-Apr-26 02:00N 34°39' E 135°15'0 0.0
2017-Apr-26 01:30N 34°38' E 135°15'0 0.0
2017-Apr-26 01:00N 34°38' E 135°15'0 0.0
2017-Apr-26 00:30N 34°38' E 135°15'0 0.0
2017-Apr-26 00:00N 34°38' E 135°15'0 0.0
2017-Apr-25 23:30N 34°38' E 135°15'0 0.1
2017-Apr-25 23:00N 34°38' E 135°15'3 6.6
2017-Apr-25 22:30N 34°37' E 135°11'510.3
2017-Apr-25 22:00N 34°35' E 135°06'4 8.1
2017-Apr-25 21:30N 34°37' E 135°01'5 8.9
2017-Apr-25 20:54N 34°35' E 134°55'411.0
2017-Apr-25 20:30N 34°33' E 134°50'2 0.0
2017-Apr-24 05:12N 34°33' E 134°48'311.7
2017-Apr-24 04:54N 34°35' E 134°52'411.0
2017-Apr-24 04:30N 34°37' E 134°56'4 8.4
2017-Apr-24 03:59N 34°37' E 135°02'510.0
2017-Apr-24 03:30N 34°36' E 135°08'612.6
2017-Apr-24 03:00N 34°37' E 135°15'612.3
2017-Apr-24 02:30N 34°38' E 135°23'2 4.3
2017-Apr-24 02:00N 34°38' E 135°25'0 0.0
2017-Apr-24 01:30N 34°38' E 135°25'2 4.4
2017-Apr-24 01:00N 34°38' E 135°22'510.8
2017-Apr-24 00:30N 34°39' E 135°16'1 2.9
2017-Apr-24 00:00N 34°39' E 135°14'0 0.0
2017-Apr-23 23:30N 34°39' E 135°14'0 0.0
2017-Apr-23 23:00N 34°39' E 135°14'1 1.8
2017-Apr-23 22:30N 34°39' E 135°15'0 0.0
2017-Apr-23 22:00N 34°39' E 135°15'0 0.0
2017-Apr-23 21:30N 34°39' E 135°15'0 0.0
2017-Apr-23 21:00N 34°39' E 135°15'0 0.0
2017-Apr-23 20:30N 34°39' E 135°15'0 0.0
2017-Apr-23 20:00N 34°39' E 135°15'1 1.4
2017-Apr-23 19:30N 34°38' E 135°15'5 9.6
2017-Apr-23 19:00N 34°36' E 135°10'510.4
2017-Apr-23 18:30N 34°36' E 135°03'510.3
2017-Apr-23 18:00N 34°36' E 134°57'611.6
2017-Apr-23 17:30N 34°34' E 134°51'  
2017-Apr-21 04:22N 34°36' E 134°53'512.1
2017-Apr-21 03:58N 34°38' E 134°59'510.5
2017-Apr-21 03:30N 34°36' E 135°05'612.7
2017-Apr-21 03:00N 34°37' E 135°12'3 6.1
2017-Apr-21 02:30N 34°40' E 135°14'0 0.1
2017-Apr-21 02:00N 34°40' E 135°14'0 0.0
2017-Apr-21 01:30N 34°40' E 135°14'0 0.0
2017-Apr-21 01:00N 34°40' E 135°14'1 1.1
2017-Apr-21 00:30N 34°40' E 135°14'0 0.0
2017-Apr-21 00:00N 34°40' E 135°14'0 0.0
2017-Apr-20 23:30N 34°40' E 135°14'0 0.0
2017-Apr-20 23:00N 34°40' E 135°14'2 3.4
2017-Apr-20 22:30N 34°39' E 135°15'0 0.6
2017-Apr-20 22:00N 34°38' E 135°15'5 9.0
2017-Apr-20 21:30N 34°36' E 135°10'611.0
2017-Apr-20 20:59N 34°35' E 135°04'  
Track history (hours):
 
Tides and Currents Weather Stations Pressure Air Temp Water Temp Dewpoint Dewpoint Depression Visibility Wind Speed Wind Dir Waves Ship Positions

Koyo

Last reported at 2017-Apr-30 20:30 UTC. Time now 2017-Apr-30 20:51 UTC.
Position N 34°41' E 135°13'.

Length 80 m; draft 3.7 m.

Type: Cargo ship. MMSI: 431301812.

Date/timePositionNaut miles runAvg speedWind from/ knotsBaromVisibWave heightAir tempDewpointWater temp
2017-Apr-30 20:30N 34°41' E 135°13'0 0.0
2017-Apr-30 20:00N 34°41' E 135°13'0 0.0
2017-Apr-30 19:30N 34°41' E 135°13'0 0.0
2017-Apr-30 19:00N 34°41' E 135°13'0 0.0
2017-Apr-30 18:30N 34°41' E 135°13'0 0.0
2017-Apr-30 18:00N 34°41' E 135°13'0 0.0
2017-Apr-30 17:30N 34°41' E 135°13'0 0.0
2017-Apr-30 17:00N 34°41' E 135°13'0 0.0
2017-Apr-30 16:30N 34°41' E 135°13'0 0.0
2017-Apr-30 16:00N 34°41' E 135°13'0 0.0
2017-Apr-30 15:30N 34°41' E 135°13'0 0.0
2017-Apr-30 15:00N 34°41' E 135°13'0 0.0
2017-Apr-30 14:30N 34°41' E 135°13'0 0.0
2017-Apr-30 13:30N 34°41' E 135°13'0 0.0
2017-Apr-30 13:00N 34°41' E 135°13'0 0.0
2017-Apr-30 12:30N 34°41' E 135°13'0 0.0
2017-Apr-30 12:00N 34°41' E 135°13'0 0.0
2017-Apr-30 11:30N 34°41' E 135°13'0 0.0
2017-Apr-30 11:00N 34°41' E 135°13'0 0.0
2017-Apr-30 10:30N 34°41' E 135°13'0 0.0
2017-Apr-30 10:00N 34°41' E 135°13'0 0.0
2017-Apr-30 09:30N 34°41' E 135°13'0 0.0
2017-Apr-30 09:00N 34°41' E 135°13'0 0.0
2017-Apr-30 08:30N 34°41' E 135°13'0 0.0
2017-Apr-30 08:00N 34°41' E 135°13'0 0.0
2017-Apr-30 07:30N 34°41' E 135°13'0 0.0
2017-Apr-30 07:00N 34°41' E 135°13'0 0.0
2017-Apr-30 06:30N 34°41' E 135°13'0 0.0
2017-Apr-30 06:00N 34°41' E 135°13'0 0.0
2017-Apr-30 05:30N 34°41' E 135°13'0 0.0
2017-Apr-30 05:00N 34°41' E 135°13'0 0.0
2017-Apr-30 04:30N 34°41' E 135°13'0 0.0
2017-Apr-30 04:00N 34°41' E 135°13'0 0.0
2017-Apr-30 03:30N 34°41' E 135°13'0 0.0
2017-Apr-30 03:00N 34°41' E 135°13'0 0.0
2017-Apr-30 02:30N 34°41' E 135°13'0 0.0
2017-Apr-30 02:00N 34°41' E 135°13'0 0.0
2017-Apr-30 01:30N 34°41' E 135°13'0 0.0
2017-Apr-30 01:00N 34°41' E 135°13'0 0.0
2017-Apr-30 00:30N 34°41' E 135°13'0 0.0
2017-Apr-30 00:00N 34°41' E 135°13'0 0.0
2017-Apr-29 23:30N 34°41' E 135°13'0 0.0
2017-Apr-29 23:00N 34°41' E 135°13'0 0.0
2017-Apr-29 22:30N 34°41' E 135°13'0 0.0
2017-Apr-29 22:00N 34°41' E 135°13'0 0.0
2017-Apr-29 21:30N 34°41' E 135°13'0 0.0
2017-Apr-29 21:00N 34°41' E 135°13'0 0.0
2017-Apr-29 20:30N 34°41' E 135°13'0 0.0
2017-Apr-29 20:00N 34°41' E 135°13'0 0.0
2017-Apr-29 19:30N 34°41' E 135°13'0 0.0
2017-Apr-29 19:00N 34°41' E 135°13'0 0.0
2017-Apr-29 18:30N 34°41' E 135°13'0 0.0
2017-Apr-29 18:00N 34°41' E 135°13'0 0.0
2017-Apr-29 17:30N 34°41' E 135°13'0 0.2
2017-Apr-29 17:00N 34°41' E 135°13'4 7.6
2017-Apr-29 16:30N 34°38' E 135°15'612.4
2017-Apr-29 16:00N 34°36' E 135°08'510.6
2017-Apr-29 15:30N 34°36' E 135°02'510.8
2017-Apr-29 15:00N 34°36' E 134°55'4 0.2
2017-Apr-28 16:27N 34°35' E 134°51'511.7
2017-Apr-28 15:59N 34°37' E 134°57'510.9
2017-Apr-28 15:30N 34°36' E 135°03'611.2
2017-Apr-28 15:00N 34°37' E 135°10'5 4.7
2017-Apr-28 14:00N 34°40' E 135°14'0 0.0
2017-Apr-28 13:30N 34°40' E 135°14'0 0.0
2017-Apr-28 13:00N 34°40' E 135°14'0 0.0
2017-Apr-28 12:30N 34°40' E 135°14'0 0.0
2017-Apr-28 12:00N 34°40' E 135°14'0 0.7
2017-Apr-28 11:30N 34°39' E 135°15'511.0
2017-Apr-28 11:00N 34°35' E 135°12'612.8
2017-Apr-28 10:30N 34°30' E 135°07'713.2
2017-Apr-28 10:00N 34°24' E 135°03'813.6
2017-Apr-28 09:25N 34°16' E 134°60'614.1
2017-Apr-28 09:00N 34°13' E 135°06'2 4.6
2017-Apr-28 08:30N 34°12' E 135°09'0 0.0
2017-Apr-28 08:00N 34°12' E 135°09'0 0.0
2017-Apr-28 07:30N 34°12' E 135°09'0 0.0
2017-Apr-28 07:00N 34°12' E 135°09'0 0.0
2017-Apr-28 06:30N 34°12' E 135°09'2 3.6
2017-Apr-28 06:00N 34°13' E 135°07'911.5
2017-Apr-28 05:16N 34°19' E 134°59'413.6
2017-Apr-28 04:59N 34°22' E 135°02'714.2
2017-Apr-28 04:29N 34°27' E 135°08'713.4
2017-Apr-28 04:00N 34°32' E 135°14'812.5
2017-Apr-28 03:20N 34°37' E 135°22'3 8.4
2017-Apr-28 02:59N 34°38' E 135°25'0 0.0
2017-Apr-28 02:27N 34°38' E 135°25'0 0.0
2017-Apr-28 02:00N 34°38' E 135°25'0 0.9
2017-Apr-28 01:30N 34°37' E 135°25'611.7
2017-Apr-28 01:00N 34°38' E 135°18'3 5.5
2017-Apr-28 00:30N 34°39' E 135°14'0 0.0
2017-Apr-28 00:00N 34°39' E 135°14'0 0.0
2017-Apr-27 23:30N 34°39' E 135°14'0 0.1
2017-Apr-27 23:00N 34°39' E 135°15'1 1.9
2017-Apr-27 22:30N 34°39' E 135°15'0 0.0
2017-Apr-27 22:00N 34°39' E 135°15'0 0.0
2017-Apr-27 21:30N 34°39' E 135°15'0 0.0
2017-Apr-27 21:00N 34°39' E 135°15'0 0.0
2017-Apr-27 20:30N 34°39' E 135°15'0 0.0
2017-Apr-27 20:00N 34°39' E 135°15'0 0.0
2017-Apr-27 19:30N 34°39' E 135°15'0 0.0
2017-Apr-27 19:00N 34°39' E 135°15'0 0.0
2017-Apr-27 18:30N 34°39' E 135°15'0 0.0
2017-Apr-27 18:00N 34°39' E 135°15'0 0.0
2017-Apr-27 17:30N 34°39' E 135°15'0 0.1
2017-Apr-27 17:00N 34°39' E 135°15'0 0.2
2017-Apr-27 16:30N 34°39' E 135°15'0 0.1
2017-Apr-27 16:00N 34°39' E 135°15'3 5.8
2017-Apr-27 15:30N 34°37' E 135°13'611.7
2017-Apr-27 15:00N 34°35' E 135°06'1010.3
2017-Apr-27 14:00N 34°35' E 134°53'1 0.1
2017-Apr-26 12:16N 34°35' E 134°51'415.6
2017-Apr-26 12:00N 34°37' E 134°56'714.1
2017-Apr-26 11:30N 34°36' E 135°04'713.3
2017-Apr-26 11:00N 34°37' E 135°13'3 5.3
2017-Apr-26 10:30N 34°40' E 135°14'0 0.0
2017-Apr-26 10:00N 34°40' E 135°14'0 0.1
2017-Apr-26 09:30N 34°40' E 135°14'0 0.1
2017-Apr-26 08:59N 34°40' E 135°14'0 0.0
2017-Apr-26 08:30N 34°40' E 135°14'0 0.0
2017-Apr-26 08:00N 34°40' E 135°14'0 0.0
2017-Apr-26 07:30N 34°40' E 135°14'1 1.5
2017-Apr-26 07:00N 34°39' E 135°15'0 0.8
2017-Apr-26 06:30N 34°39' E 135°15'0 0.0
2017-Apr-26 06:00N 34°39' E 135°15'1 1.4
2017-Apr-26 05:30N 34°39' E 135°15'0 0.0
2017-Apr-26 05:00N 34°39' E 135°15'0 0.0
2017-Apr-26 04:30N 34°39' E 135°15'0 0.0
2017-Apr-26 04:00N 34°39' E 135°15'1 1.7
2017-Apr-26 03:30N 34°38' E 135°15'0 0.0
2017-Apr-26 03:00N 34°38' E 135°15'0 0.1
2017-Apr-26 02:30N 34°39' E 135°15'0 0.1
2017-Apr-26 02:00N 34°39' E 135°15'0 0.0
2017-Apr-26 01:30N 34°38' E 135°15'0 0.0
2017-Apr-26 01:00N 34°38' E 135°15'0 0.0
2017-Apr-26 00:30N 34°38' E 135°15'0 0.0
2017-Apr-26 00:00N 34°38' E 135°15'0 0.0
2017-Apr-25 23:30N 34°38' E 135°15'0 0.1
2017-Apr-25 23:00N 34°38' E 135°15'3 6.6
2017-Apr-25 22:30N 34°37' E 135°11'510.3
2017-Apr-25 22:00N 34°35' E 135°06'4 8.1
2017-Apr-25 21:30N 34°37' E 135°01'5 8.9
2017-Apr-25 20:54N 34°35' E 134°55'411.0
2017-Apr-25 20:30N 34°33' E 134°50'2 0.0
2017-Apr-24 05:12N 34°33' E 134°48'311.7
2017-Apr-24 04:54N 34°35' E 134°52'411.0
2017-Apr-24 04:30N 34°37' E 134°56'4 8.4
2017-Apr-24 03:59N 34°37' E 135°02'510.0
2017-Apr-24 03:30N 34°36' E 135°08'612.6
2017-Apr-24 03:00N 34°37' E 135°15'612.3
2017-Apr-24 02:30N 34°38' E 135°23'2 4.3
2017-Apr-24 02:00N 34°38' E 135°25'0 0.0
2017-Apr-24 01:30N 34°38' E 135°25'2 4.4
2017-Apr-24 01:00N 34°38' E 135°22'510.8
2017-Apr-24 00:30N 34°39' E 135°16'1 2.9
2017-Apr-24 00:00N 34°39' E 135°14'0 0.0
2017-Apr-23 23:30N 34°39' E 135°14'0 0.0
2017-Apr-23 23:00N 34°39' E 135°14'1 1.8
2017-Apr-23 22:30N 34°39' E 135°15'0 0.0
2017-Apr-23 22:00N 34°39' E 135°15'0 0.0
2017-Apr-23 21:30N 34°39' E 135°15'0 0.0
2017-Apr-23 21:00N 34°39' E 135°15'0 0.0
2017-Apr-23 20:30N 34°39' E 135°15'0 0.0
2017-Apr-23 20:00N 34°39' E 135°15'1 1.4
2017-Apr-23 19:30N 34°38' E 135°15'5 9.6
2017-Apr-23 19:00N 34°36' E 135°10'510.4
2017-Apr-23 18:30N 34°36' E 135°03'510.3
2017-Apr-23 18:00N 34°36' E 134°57'611.6
2017-Apr-23 17:30N 34°34' E 134°51'  
2017-Apr-21 04:22N 34°36' E 134°53'512.1
2017-Apr-21 03:58N 34°38' E 134°59'510.5
2017-Apr-21 03:30N 34°36' E 135°05'612.7
2017-Apr-21 03:00N 34°37' E 135°12'3 6.1
2017-Apr-21 02:30N 34°40' E 135°14'0 0.1
2017-Apr-21 02:00N 34°40' E 135°14'0 0.0
2017-Apr-21 01:30N 34°40' E 135°14'0 0.0
2017-Apr-21 01:00N 34°40' E 135°14'1 1.1
2017-Apr-21 00:30N 34°40' E 135°14'0 0.0
2017-Apr-21 00:00N 34°40' E 135°14'0 0.0
2017-Apr-20 23:30N 34°40' E 135°14'0 0.0
2017-Apr-20 23:00N 34°40' E 135°14'2 3.4
2017-Apr-20 22:30N 34°39' E 135°15'0 0.6
2017-Apr-20 22:00N 34°38' E 135°15'5 9.0
2017-Apr-20 21:30N 34°36' E 135°10'611.0
2017-Apr-20 20:59N 34°35' E 135°04'  

Dump ship's entire track history